createdAt,value
2017-09-05T00:01:57.042Z,15.32
2017-09-05T00:04:23.189Z,16.73
2017-09-05T00:06:49.471Z,17.58
2017-09-05T00:12:16.290Z,16.60
2017-09-05T00:14:45.807Z,17.15
2017-09-05T00:17:14.883Z,16.20
2017-09-05T00:19:41.161Z,16.87
2017-09-05T00:22:11.633Z,17.60
2017-09-05T00:24:37.855Z,17.70
2017-09-05T00:27:04.125Z,18.73
2017-09-05T00:29:30.316Z,17.52
2017-09-05T00:31:56.488Z,16.85
2017-09-05T00:34:22.755Z,17.90
2017-09-05T00:36:49.027Z,18.45
2017-09-05T00:39:15.211Z,16.58
2017-09-05T00:41:59.500Z,16.30
2017-09-05T00:44:29.144Z,16.97
2017-09-05T00:47:00.852Z,17.57
2017-09-05T00:49:27.164Z,16.97
2017-09-05T00:51:53.333Z,17.70
2017-09-05T00:54:19.551Z,17.65
2017-09-05T00:56:45.641Z,17.00
2017-09-05T00:59:11.674Z,16.08
2017-09-05T01:01:39.585Z,16.30
2017-09-05T01:04:05.836Z,16.00
2017-09-05T01:06:32.393Z,15.55
2017-09-05T01:08:58.872Z,16.60
2017-09-05T01:11:24.955Z,15.43
2017-09-05T01:13:50.990Z,16.00
2017-09-05T01:16:17.062Z,15.85
2017-09-05T01:18:43.109Z,16.23
2017-09-05T01:21:09.162Z,16.12
2017-09-05T01:23:35.226Z,16.30
2017-09-05T01:26:01.310Z,14.25
2017-09-05T01:28:27.374Z,15.90
2017-09-05T01:30:53.407Z,15.95
2017-09-05T01:33:19.464Z,15.00
2017-09-05T01:35:45.518Z,15.90
2017-09-05T01:38:11.548Z,15.00
2017-09-05T01:40:37.558Z,14.90
2017-09-05T01:43:03.602Z,15.20
2017-09-05T01:45:29.665Z,14.25
2017-09-05T01:47:55.678Z,14.40
2017-09-05T01:50:21.722Z,14.95
2017-09-05T01:52:47.738Z,13.75
2017-09-05T01:55:13.786Z,14.75
2017-09-05T01:57:39.820Z,14.30
2017-09-05T02:00:05.837Z,15.07
2017-09-05T02:02:31.910Z,14.60
2017-09-05T02:04:57.939Z,14.45
2017-09-05T02:07:23.980Z,15.90
2017-09-05T02:09:50.370Z,15.10
2017-09-05T02:12:16.409Z,14.23
2017-09-05T02:14:42.473Z,14.50
2017-09-05T02:17:08.652Z,15.80
2017-09-05T02:19:34.693Z,14.90
2017-09-05T02:22:00.738Z,14.07
2017-09-05T02:24:26.804Z,13.88
2017-09-05T02:26:52.902Z,14.03
2017-09-05T02:29:18.920Z,14.43
2017-09-05T02:31:44.975Z,15.20
2017-09-05T02:34:11.002Z,14.27
2017-09-05T02:36:37.030Z,15.35
2017-09-05T02:39:03.090Z,15.40
2017-09-05T02:41:29.119Z,16.77
2017-09-05T02:43:55.153Z,16.20
2017-09-05T02:46:21.182Z,17.05
2017-09-05T02:48:47.198Z,16.20
2017-09-05T02:51:13.278Z,17.87
2017-09-05T02:53:39.355Z,17.00
2017-09-05T02:56:05.370Z,16.98
2017-09-05T02:58:31.406Z,16.57
2017-09-05T03:00:57.454Z,18.80
2017-09-05T03:03:23.487Z,18.60
2017-09-05T03:05:49.547Z,17.62
2017-09-05T03:08:15.598Z,18.20
2017-09-05T03:10:41.610Z,18.60
2017-09-05T03:13:07.835Z,19.77
2017-09-05T03:15:33.851Z,19.55
2017-09-05T03:17:59.877Z,19.65
2017-09-05T03:20:26.022Z,18.17
2017-09-05T03:22:52.043Z,19.85
2017-09-05T03:25:18.083Z,20.30
2017-09-05T03:27:44.134Z,18.58
2017-09-05T03:30:10.171Z,19.30
2017-09-05T03:32:36.233Z,18.10
2017-09-05T03:35:02.253Z,18.10
2017-09-05T03:37:28.274Z,17.70
2017-09-05T03:39:54.301Z,18.17
2017-09-05T03:42:20.383Z,19.12
2017-09-05T03:44:46.406Z,19.95
2017-09-05T03:47:12.454Z,18.48
2017-09-05T03:49:38.490Z,18.50
2017-09-05T03:52:04.541Z,18.65
2017-09-05T03:54:30.600Z,17.80
2017-09-05T03:56:56.627Z,19.40
2017-09-05T03:59:22.697Z,17.83
2017-09-05T04:01:48.750Z,18.33
2017-09-05T04:04:14.802Z,19.65
2017-09-05T04:06:40.837Z,19.07
2017-09-05T04:09:06.965Z,18.02
2017-09-05T04:11:33.011Z,18.83
2017-09-05T04:13:59.072Z,17.50
2017-09-05T04:16:25.147Z,17.50
2017-09-05T04:18:51.190Z,17.25
2017-09-05T04:21:17.244Z,18.23
2017-09-05T04:23:43.290Z,17.55
2017-09-05T04:26:09.314Z,16.80
2017-09-05T04:28:35.362Z,18.23
2017-09-05T04:31:01.410Z,17.00
2017-09-05T04:33:27.439Z,16.03
2017-09-05T04:35:53.462Z,17.70
2017-09-05T04:38:19.502Z,18.87
2017-09-05T04:40:45.517Z,16.62
2017-09-05T04:43:11.613Z,17.87
2017-09-05T04:45:37.658Z,16.73
2017-09-05T04:48:03.799Z,17.35
2017-09-05T04:50:29.894Z,16.80
2017-09-05T04:52:55.913Z,16.90
2017-09-05T04:55:21.948Z,17.45
2017-09-05T04:57:48.470Z,17.48
2017-09-05T05:00:14.700Z,18.20
2017-09-05T05:02:40.747Z,17.37
2017-09-05T05:05:06.788Z,18.00
2017-09-05T05:07:32.822Z,18.02
2017-09-05T05:09:59.200Z,18.17
2017-09-05T05:12:25.639Z,17.30
2017-09-05T05:14:51.661Z,18.58
2017-09-05T05:17:17.701Z,18.02
2017-09-05T05:19:43.902Z,18.15
2017-09-05T05:22:09.942Z,18.80
2017-09-05T05:24:36.004Z,20.65
2017-09-05T05:27:02.061Z,19.27
2017-09-05T05:29:28.100Z,18.27
2017-09-05T05:31:54.157Z,19.50
2017-09-05T05:34:20.227Z,19.87
2017-09-05T05:36:46.856Z,19.80
2017-09-05T05:39:12.895Z,20.60
2017-09-05T05:41:38.919Z,20.27
2017-09-05T05:44:04.986Z,19.37
2017-09-05T05:46:31.001Z,20.15
2017-09-05T05:48:57.593Z,19.20
2017-09-05T05:51:24.218Z,20.45
2017-09-05T05:53:50.266Z,20.50
2017-09-05T05:56:16.277Z,20.70
2017-09-05T05:58:42.339Z,21.30
2017-09-05T06:01:08.386Z,19.30
2017-09-05T06:03:34.436Z,20.20
2017-09-05T06:06:00.498Z,20.73
2017-09-05T06:08:26.558Z,20.33
2017-09-05T06:10:52.569Z,19.73
2017-09-05T06:13:18.924Z,20.10
2017-09-05T06:15:44.953Z,19.65
2017-09-05T06:18:10.981Z,20.70
2017-09-05T06:20:37.388Z,18.30
2017-09-05T06:23:03.425Z,18.37
2017-09-05T06:25:29.524Z,20.48
2017-09-05T06:27:55.582Z,21.58
2017-09-05T06:30:21.610Z,19.25
2017-09-05T06:32:47.662Z,20.73
2017-09-05T06:35:13.759Z,21.25
2017-09-05T06:37:39.791Z,19.45
2017-09-05T06:40:06.533Z,20.70
2017-09-05T06:42:32.744Z,20.62
2017-09-05T06:44:58.989Z,20.03
2017-09-05T06:47:27.656Z,20.02
2017-09-05T06:52:43.500Z,19.40
2017-09-05T06:55:09.706Z,18.40
2017-09-05T06:57:36.119Z,19.50
2017-09-05T07:00:02.331Z,18.17
2017-09-05T07:02:28.589Z,18.90
2017-09-05T07:04:54.979Z,19.15
2017-09-05T07:07:21.300Z,19.80
2017-09-05T07:09:47.908Z,19.70
2017-09-05T07:12:14.213Z,18.33
2017-09-05T07:14:40.472Z,18.30
2017-09-05T07:17:06.783Z,18.83
2017-09-05T07:19:32.993Z,18.67
2017-09-05T07:21:59.775Z,18.95
2017-09-05T07:24:26.639Z,18.20
2017-09-05T07:26:53.130Z,17.83
2017-09-05T07:29:19.419Z,19.25
2017-09-05T07:31:45.560Z,18.10
2017-09-05T07:34:11.690Z,19.27
2017-09-05T07:36:37.819Z,18.60
2017-09-05T07:39:04.097Z,19.08
2017-09-05T07:41:30.963Z,17.63
2017-09-05T07:43:57.856Z,17.30
2017-09-05T07:46:31.707Z,18.80
2017-09-05T07:48:58.374Z,18.73
2017-09-05T07:51:25.004Z,18.50
2017-09-05T07:53:53.103Z,18.30
2017-09-05T07:56:19.494Z,18.50
2017-09-05T07:58:45.547Z,18.37
2017-09-05T08:01:11.574Z,19.30
2017-09-05T08:03:37.688Z,18.23
2017-09-05T08:06:03.768Z,20.23
2017-09-05T08:08:29.853Z,67.72
2017-09-05T08:10:55.870Z,26.23
2017-09-05T08:13:21.962Z,21.15
2017-09-05T08:15:48.566Z,18.92
2017-09-05T08:18:14.602Z,19.67
2017-09-05T08:20:40.862Z,18.30
2017-09-05T08:23:06.890Z,18.87
2017-09-05T08:25:32.926Z,18.07
2017-09-05T08:27:59.074Z,20.27
2017-09-05T08:30:25.120Z,19.40
2017-09-05T08:32:51.173Z,19.75
2017-09-05T08:35:17.206Z,19.60
2017-09-05T08:37:43.522Z,19.92
2017-09-05T08:40:09.552Z,19.77
2017-09-05T08:42:35.614Z,20.60
2017-09-05T08:45:01.923Z,20.00
2017-09-05T08:47:27.939Z,20.43
2017-09-05T08:49:53.990Z,21.42
2017-09-05T08:52:20.088Z,22.37
2017-09-05T08:54:46.157Z,21.70
2017-09-05T08:57:12.182Z,22.90
2017-09-05T08:59:38.289Z,22.70
2017-09-05T09:02:04.320Z,21.67
2017-09-05T09:04:30.371Z,21.67
2017-09-05T09:06:56.423Z,21.40
2017-09-05T09:09:22.438Z,21.90
2017-09-05T09:11:48.446Z,20.47
2017-09-05T09:14:14.522Z,19.95
2017-09-05T09:16:40.547Z,19.55
2017-09-05T09:19:06.604Z,19.60
2017-09-05T09:21:32.667Z,19.10
2017-09-05T09:23:58.714Z,20.00
2017-09-05T09:26:24.739Z,19.90
2017-09-05T09:28:50.886Z,20.08
2017-09-05T09:31:16.933Z,19.15
2017-09-05T09:33:42.971Z,18.42
2017-09-05T09:36:09.076Z,18.60
2017-09-05T09:38:35.196Z,17.50
2017-09-05T09:41:01.220Z,17.50
2017-09-05T09:43:27.500Z,16.98
2017-09-05T09:45:53.522Z,14.60
2017-09-05T09:48:19.561Z,14.90
2017-09-05T09:50:45.643Z,14.30
2017-09-05T09:53:11.665Z,14.10
2017-09-05T09:55:37.714Z,15.10
2017-09-05T09:58:03.974Z,14.13
2017-09-05T10:00:29.988Z,14.00
2017-09-05T10:02:56.047Z,13.38
2017-09-05T10:05:22.080Z,14.10
2017-09-05T10:07:48.142Z,13.05
2017-09-05T10:10:14.190Z,13.95
2017-09-05T10:12:40.225Z,13.57
2017-09-05T10:15:06.294Z,13.80
2017-09-05T10:17:32.434Z,14.68
2017-09-05T10:19:58.479Z,13.90
2017-09-05T10:22:24.698Z,15.30
2017-09-05T10:24:50.717Z,14.40
2017-09-05T10:27:16.777Z,14.20
2017-09-05T10:29:43.174Z,14.45
2017-09-05T10:32:09.219Z,14.30
2017-09-05T10:34:35.258Z,15.27
2017-09-05T10:37:01.307Z,16.17
2017-09-05T10:39:27.339Z,18.17
2017-09-05T10:41:53.422Z,18.55
2017-09-05T10:44:19.616Z,19.08
2017-09-05T10:46:45.657Z,19.60
2017-09-05T10:49:11.679Z,19.37
2017-09-05T10:51:37.698Z,19.10
2017-09-05T10:54:03.714Z,17.90
2017-09-05T10:56:29.776Z,21.25
2017-09-05T10:58:55.871Z,19.45
2017-09-05T11:01:21.930Z,19.55
2017-09-05T11:03:48.022Z,19.08
2017-09-05T11:06:14.103Z,19.20
2017-09-05T11:08:40.331Z,17.10
2017-09-05T11:11:06.418Z,17.60
2017-09-05T11:13:32.535Z,15.02
2017-09-05T11:15:58.566Z,15.43
2017-09-05T11:18:26.077Z,18.80
2017-09-05T11:20:52.313Z,17.70
2017-09-05T11:23:18.376Z,20.47
2017-09-05T11:25:44.442Z,19.08
2017-09-05T11:28:10.474Z,16.10
2017-09-05T11:30:36.550Z,14.00
2017-09-05T11:33:02.902Z,12.70
2017-09-05T11:35:28.924Z,12.82
2017-09-05T11:37:55.009Z,11.83
2017-09-05T11:40:21.096Z,11.40
2017-09-05T11:42:47.119Z,7.80
2017-09-05T11:45:13.164Z,5.90
2017-09-05T11:47:39.327Z,4.93
2017-09-05T11:50:05.361Z,4.85
2017-09-05T11:52:31.458Z,5.30
2017-09-05T11:54:57.518Z,5.30
2017-09-05T11:57:23.587Z,4.40
2017-09-05T11:59:49.651Z,5.05
2017-09-05T12:02:15.796Z,4.82
2017-09-05T12:04:41.846Z,5.30
2017-09-05T12:07:07.883Z,4.93
2017-09-05T12:09:34.063Z,5.93
2017-09-05T12:12:00.177Z,6.30
2017-09-05T12:14:26.177Z,5.55
2017-09-05T12:16:52.199Z,5.50
2017-09-05T12:19:18.234Z,6.25
2017-09-05T12:21:44.287Z,8.90
2017-09-05T12:24:10.375Z,7.95
2017-09-05T12:26:36.750Z,7.20
2017-09-05T12:29:02.797Z,6.90
2017-09-05T12:31:28.897Z,6.90
2017-09-05T12:33:54.982Z,6.30
2017-09-05T12:36:21.047Z,5.65
2017-09-05T12:38:47.098Z,5.40
2017-09-05T12:41:13.154Z,4.30
2017-09-05T12:43:39.214Z,4.62
2017-09-05T12:46:05.254Z,4.50
2017-09-05T12:48:31.314Z,4.40
2017-09-05T12:50:57.334Z,4.82
2017-09-05T12:53:23.644Z,5.10
2017-09-05T12:55:49.688Z,5.10
2017-09-05T12:58:15.721Z,5.20
2017-09-05T13:00:41.810Z,5.60
2017-09-05T13:03:07.846Z,5.50
2017-09-05T13:05:33.917Z,5.80
2017-09-05T13:08:00.011Z,5.43
2017-09-05T13:10:26.082Z,6.50
2017-09-05T13:12:52.106Z,7.05
2017-09-05T13:15:18.177Z,5.25
2017-09-05T13:17:44.234Z,6.07
2017-09-05T13:20:10.291Z,5.80
2017-09-05T13:22:36.358Z,6.10
2017-09-05T13:25:02.397Z,6.60
2017-09-05T13:27:28.546Z,5.90
2017-09-05T13:29:54.891Z,6.40
2017-09-05T13:32:20.922Z,6.75
2017-09-05T13:34:46.965Z,5.80
2017-09-05T13:37:13.174Z,5.95
2017-09-05T13:39:39.186Z,5.95
2017-09-05T13:42:05.257Z,4.93
2017-09-05T13:44:31.943Z,5.55
2017-09-05T13:46:58.034Z,5.15
2017-09-05T13:49:24.285Z,4.70
2017-09-05T13:51:50.363Z,4.93
2017-09-05T13:54:16.430Z,5.22
2017-09-05T13:56:42.476Z,5.10
2017-09-05T13:59:08.681Z,5.28
2017-09-05T14:01:34.947Z,5.70
2017-09-05T14:04:01.193Z,5.97
2017-09-05T14:06:27.256Z,5.90
2017-09-05T14:08:53.354Z,5.20
2017-09-05T14:11:19.414Z,5.05
2017-09-05T14:13:45.616Z,5.10
2017-09-05T14:16:11.643Z,5.70
2017-09-05T14:18:37.723Z,5.40
2017-09-05T14:21:03.933Z,5.45
2017-09-05T14:23:29.958Z,6.05
2017-09-05T14:25:56.049Z,5.90
2017-09-05T14:28:22.495Z,6.00
2017-09-05T14:30:48.529Z,5.20
2017-09-05T14:33:14.602Z,4.90
2017-09-05T14:35:40.615Z,4.78
2017-09-05T14:38:06.751Z,4.90
2017-09-05T14:40:32.863Z,4.60
2017-09-05T14:42:58.927Z,4.68
2017-09-05T14:45:25.043Z,4.80
2017-09-05T14:47:51.456Z,5.80
2017-09-05T14:50:17.552Z,4.43
2017-09-05T14:52:43.603Z,4.62
2017-09-05T14:55:09.939Z,4.55
2017-09-05T14:57:35.972Z,4.68
2017-09-05T15:00:02.066Z,4.30
2017-09-05T15:02:28.302Z,4.70
2017-09-05T15:04:54.326Z,4.60
2017-09-05T15:07:20.383Z,4.57
2017-09-05T15:09:46.466Z,4.60
2017-09-05T15:12:12.530Z,4.60
2017-09-05T15:14:38.562Z,4.55
2017-09-05T15:17:04.663Z,4.72
2017-09-05T15:19:30.690Z,4.90
2017-09-05T15:21:56.764Z,4.70
2017-09-05T15:24:22.825Z,4.75
2017-09-05T15:26:49.138Z,4.70
2017-09-05T15:29:15.182Z,5.00
2017-09-05T15:31:41.202Z,5.00
2017-09-05T15:34:07.615Z,4.75
2017-09-05T15:36:33.631Z,5.28
2017-09-05T15:38:59.662Z,4.82
2017-09-05T15:41:25.751Z,5.60
2017-09-05T15:43:51.790Z,5.20
2017-09-05T15:46:17.839Z,5.00
2017-09-05T15:48:43.894Z,4.70
2017-09-05T15:51:09.946Z,5.20
2017-09-05T15:53:36.018Z,6.40
2017-09-05T15:56:02.075Z,5.60
2017-09-05T15:58:28.160Z,5.87
2017-09-05T16:00:54.347Z,5.50
2017-09-05T16:03:20.389Z,5.40
2017-09-05T16:05:46.428Z,5.20
2017-09-05T16:08:12.463Z,5.30
2017-09-05T16:10:38.490Z,5.40
2017-09-05T16:13:04.511Z,5.30
2017-09-05T16:15:31.103Z,5.10
2017-09-05T16:17:57.185Z,5.00
2017-09-05T16:20:23.255Z,4.85
2017-09-05T16:22:49.352Z,5.00
2017-09-05T16:25:15.382Z,5.60
2017-09-05T16:27:41.423Z,4.80
2017-09-05T16:30:07.478Z,5.10
2017-09-05T16:32:33.524Z,5.22
2017-09-05T16:34:59.903Z,4.70
2017-09-05T16:37:25.914Z,5.03
2017-09-05T16:39:51.991Z,6.00
2017-09-05T16:42:18.081Z,6.30
2017-09-05T16:44:44.105Z,6.97
2017-09-05T16:47:10.143Z,6.37
2017-09-05T16:49:36.205Z,6.63
2017-09-05T16:52:02.246Z,6.82
2017-09-05T16:54:28.270Z,6.70
2017-09-05T16:56:54.675Z,6.00
2017-09-05T16:59:20.691Z,6.70
2017-09-05T17:01:46.751Z,6.50
2017-09-05T17:04:12.952Z,6.37
2017-09-05T17:06:39.100Z,6.40
2017-09-05T17:09:05.114Z,6.63
2017-09-05T17:11:31.186Z,6.80
2017-09-05T17:13:57.206Z,7.35
2017-09-05T17:16:23.538Z,6.90
2017-09-05T17:18:49.790Z,6.37
2017-09-05T17:21:15.827Z,6.30
2017-09-05T17:23:41.866Z,6.77
2017-09-05T17:26:07.914Z,7.80
2017-09-05T17:28:34.215Z,6.80
2017-09-05T17:31:00.287Z,7.07
2017-09-05T17:33:26.340Z,7.00
2017-09-05T17:35:52.432Z,6.78
2017-09-05T17:38:18.455Z,6.53
2017-09-05T17:40:44.480Z,9.10
2017-09-05T17:43:10.559Z,7.90
2017-09-05T17:45:36.587Z,7.90
2017-09-05T17:48:02.611Z,8.10
2017-09-05T17:50:28.683Z,7.50
2017-09-05T17:52:54.916Z,7.72
2017-09-05T17:55:20.981Z,7.43
2017-09-05T17:57:47.258Z,7.10
2017-09-05T18:00:13.332Z,8.40
2017-09-05T18:02:39.359Z,9.70
2017-09-05T18:05:05.433Z,9.60
2017-09-05T18:07:31.502Z,9.48
2017-09-05T18:09:57.558Z,8.20
2017-09-05T18:12:23.903Z,8.20
2017-09-05T18:14:49.929Z,7.95
2017-09-05T18:17:16.110Z,7.60
2017-09-05T18:19:42.186Z,8.02
2017-09-05T18:22:08.237Z,8.93
2017-09-05T18:24:34.275Z,8.70
2017-09-05T18:27:00.322Z,9.18
2017-09-05T18:29:26.344Z,9.30
2017-09-05T18:31:52.518Z,8.52
2017-09-05T18:34:18.570Z,8.07
2017-09-05T18:36:44.620Z,8.02
2017-09-05T18:39:10.898Z,9.05
2017-09-05T18:41:36.938Z,8.38
2017-09-05T18:44:02.975Z,8.60
2017-09-05T18:46:29.321Z,7.57
2017-09-05T18:48:55.362Z,8.33
2017-09-05T18:51:21.424Z,8.38
2017-09-05T18:53:47.475Z,8.60
2017-09-05T18:56:13.531Z,8.38
2017-09-05T18:58:39.586Z,7.90
2017-09-05T19:01:05.657Z,8.32
2017-09-05T19:03:31.702Z,8.20
2017-09-05T19:05:57.757Z,8.40
2017-09-05T19:08:23.808Z,8.75
2017-09-05T19:10:49.844Z,8.40
2017-09-05T19:13:15.895Z,8.35
2017-09-05T19:15:41.914Z,7.87
2017-09-05T19:18:07.966Z,8.70
2017-09-05T19:20:34.352Z,8.67
2017-09-05T19:23:00.462Z,8.70
2017-09-05T19:25:26.506Z,8.80
2017-09-05T19:27:52.563Z,8.40
2017-09-05T19:30:18.613Z,8.07
2017-09-05T19:32:44.654Z,7.40
2017-09-05T19:35:10.753Z,8.10
2017-09-05T19:37:36.971Z,51.00
2017-09-05T19:40:03.026Z,20.60
2017-09-05T19:42:29.089Z,33.67
2017-09-05T19:44:55.292Z,26.05
2017-09-05T19:47:21.319Z,30.98
2017-09-05T19:49:47.735Z,11.07
2017-09-05T19:52:13.783Z,32.70
2017-09-05T19:54:39.823Z,18.25
2017-09-05T19:57:06.227Z,22.08
2017-09-05T19:59:32.299Z,23.12
2017-09-05T20:01:58.358Z,36.30
2017-09-05T20:04:24.409Z,23.75
2017-09-05T20:06:50.464Z,41.27
2017-09-05T20:09:17.994Z,35.17
2017-09-05T20:11:44.234Z,9.50
2017-09-05T20:14:10.283Z,8.43
2017-09-05T20:16:36.389Z,8.30
2017-09-05T20:19:03.147Z,8.50
2017-09-05T20:21:29.225Z,9.20
2017-09-05T20:23:55.354Z,8.60
2017-09-05T20:26:21.386Z,8.60
2017-09-05T20:28:47.468Z,10.23
2017-09-05T20:31:13.576Z,8.83
2017-09-05T20:33:39.683Z,9.73
2017-09-05T20:36:05.715Z,9.40
2017-09-05T20:38:31.775Z,8.95
2017-09-05T20:40:57.823Z,9.00
2017-09-05T20:43:23.858Z,8.90
2017-09-05T20:45:49.950Z,8.60
2017-09-05T20:48:15.994Z,9.10
2017-09-05T20:50:42.039Z,9.30
2017-09-05T20:53:08.172Z,9.50
2017-09-05T20:55:34.210Z,9.20
2017-09-05T20:58:00.286Z,8.50
2017-09-05T21:00:26.332Z,8.70
2017-09-05T21:02:52.474Z,8.48
2017-09-05T21:05:18.787Z,8.77
2017-09-05T21:07:44.850Z,9.20
2017-09-05T21:10:10.906Z,8.80
2017-09-05T21:12:36.978Z,9.15
2017-09-05T21:15:03.026Z,8.30
2017-09-05T21:17:29.091Z,8.50
2017-09-05T21:19:55.159Z,8.85
2017-09-05T21:22:21.283Z,8.35
2017-09-05T21:24:47.361Z,8.80
2017-09-05T21:27:13.444Z,9.38
2017-09-05T21:29:39.476Z,9.30
2017-09-05T21:32:05.506Z,8.82
2017-09-05T21:34:31.744Z,9.40
2017-09-05T21:36:57.802Z,8.60
2017-09-05T21:39:23.866Z,8.75
2017-09-05T21:41:49.912Z,9.00
2017-09-05T21:44:15.956Z,8.30
2017-09-05T21:46:42.026Z,8.63
2017-09-05T21:49:08.235Z,8.32
2017-09-05T21:51:34.305Z,8.38
2017-09-05T21:54:00.317Z,8.52
2017-09-05T21:56:26.359Z,8.43
2017-09-05T21:58:52.685Z,8.30
2017-09-05T22:01:18.734Z,8.55
2017-09-05T22:03:44.805Z,8.70
2017-09-05T22:06:10.851Z,8.13
2017-09-05T22:08:36.895Z,8.13
2017-09-05T22:11:02.966Z,7.93
2017-09-05T22:13:28.997Z,7.82
2017-09-05T22:15:55.343Z,8.05
2017-09-05T22:18:27.510Z,8.07
2017-09-05T22:20:59.798Z,7.60
2017-09-05T22:23:25.814Z,7.37
2017-09-05T22:25:57.838Z,7.80
2017-09-05T22:28:30.006Z,7.70
2017-09-05T22:30:56.044Z,7.57
2017-09-05T22:33:22.134Z,8.48
2017-09-05T22:35:48.183Z,7.70
2017-09-05T22:38:14.226Z,7.55
2017-09-05T22:40:40.573Z,7.30
2017-09-05T22:43:06.618Z,8.00
2017-09-05T22:45:32.641Z,7.50
2017-09-05T22:47:58.703Z,6.80
2017-09-05T22:50:24.760Z,7.62
2017-09-05T22:52:50.806Z,7.93
2017-09-05T22:55:17.103Z,7.87
2017-09-05T22:57:43.137Z,8.00
2017-09-05T23:00:09.210Z,7.90
2017-09-05T23:02:35.274Z,7.70
2017-09-05T23:05:01.306Z,7.57
2017-09-05T23:07:27.373Z,8.50
2017-09-05T23:09:53.618Z,8.23
2017-09-05T23:12:19.639Z,8.55
2017-09-05T23:14:45.666Z,8.57
2017-09-05T23:17:13.114Z,7.30
2017-09-05T23:19:39.151Z,8.52
2017-09-05T23:22:05.178Z,8.23
2017-09-05T23:24:31.202Z,8.50
2017-09-05T23:26:57.254Z,10.05
2017-09-05T23:29:23.283Z,9.60
2017-09-05T23:31:49.347Z,10.00
2017-09-05T23:34:15.426Z,9.90
2017-09-05T23:36:41.444Z,10.10
2017-09-05T23:39:07.472Z,9.80
2017-09-05T23:41:33.597Z,11.20
2017-09-05T23:43:59.622Z,11.82
2017-09-05T23:46:25.646Z,11.30
2017-09-05T23:48:51.680Z,11.38
2017-09-05T23:51:17.718Z,11.80
2017-09-05T23:53:43.758Z,12.60
2017-09-05T23:56:09.802Z,11.75
2017-09-05T23:58:35.831Z,12.40
